Time;durP1;ratioP1;P1;durP2;ratioP2;P2;SDS_P1;SDS_P2;PMS_P1;PMS_P2;Temp;Humidity;BMP_temperature;BMP_pressure;BME280_temperature;BME280_humidity;BME280_pressure;Samples;Min_cycle;Max_cycle;Signal;HPM_P1;HPM_P2
2023/06/02 00:01:36;;;;;;;1.30;0.70;;;;;;;-145.06;100.00;60892.56;5921769;23;20421;-93
2023/06/02 00:04:17;;;;;;;2.33;1.00;;;;;;;-145.06;100.00;60892.56;5923552;23;20005;-91
2023/06/02 00:07:03;;;;;;;1.65;0.98;;;;;;;-145.06;100.00;60892.56;5924201;23;20009;-91
2023/06/02 00:09:43;;;;;;;0.80;0.63;;;;;;;-145.06;100.00;60892.56;5924108;23;20005;-91
2023/06/02 00:12:22;;;;;;;1.25;0.73;;;;;;;-145.06;100.00;60892.56;5923694;23;20006;-90
2023/06/02 00:15:01;;;;;;;1.97;0.93;;;;;;;-145.06;100.00;60892.56;5924028;23;20076;-90
2023/06/02 00:17:40;;;;;;;1.85;0.80;;;;;;;-145.06;100.00;60892.56;5925560;23;20013;-91
2023/06/02 00:20:20;;;;;;;1.35;0.70;;;;;;;-145.06;100.00;60892.56;5930037;23;20009;-90
2023/06/02 00:25:22;;;;;;;2.20;0.70;;;;;;;14.23;100.00;60892.56;5960692;23;20023;-92
2023/06/02 00:28:02;;;;;;;2.10;0.70;;;;;;;-145.06;100.00;60892.56;5945015;23;20013;-90
2023/06/02 00:30:41;;;;;;;1.20;0.75;;;;;;;14.21;100.00;60892.56;5944952;23;20006;-92
2023/06/02 00:33:20;;;;;;;0.63;0.60;;;;;;;-145.06;100.00;60892.56;5944881;23;20029;-89
2023/06/02 00:35:59;;;;;;;1.23;0.80;;;;;;;-145.06;100.00;60892.56;5944353;23;20024;-92
2023/06/02 00:38:39;;;;;;;1.00;0.60;;;;;;;-145.06;100.00;60892.56;5944249;23;20005;-93
2023/06/02 00:41:18;;;;;;;0.73;0.65;;;;;;;-145.06;100.00;60892.56;5945254;23;20032;-93
2023/06/02 00:43:57;;;;;;;1.77;0.67;;;;;;;-145.06;100.00;60892.56;5944234;23;20377;-91
2023/06/02 00:46:36;;;;;;;0.70;0.70;;;;;;;-145.06;100.00;60892.56;5955698;23;20420;-90
2023/06/02 00:49:16;;;;;;;0.68;0.45;;;;;;;-145.06;100.00;60892.56;5944449;23;20237;-92
2023/06/02 00:51:55;;;;;;;1.43;0.80;;;;;;;-145.06;100.00;60892.56;5944817;23;20065;-91
2023/06/02 00:54:33;;;;;;;1.20;0.60;;;;;;;-145.06;100.00;60892.56;5944283;23;20010;-92
2023/06/02 00:57:12;;;;;;;1.58;0.60;;;;;;;-145.06;100.00;60892.56;5944847;23;20013;-91
2023/06/02 00:59:51;;;;;;;2.10;0.83;;;;;;;-145.06;100.00;60892.56;5944111;23;20010;-92
2023/06/02 01:02:31;;;;;;;0.70;0.60;;;;;;;-145.06;100.00;60892.56;5944525;23;20006;-91
2023/06/02 01:05:12;;;;;;;1.45;0.80;;;;;;;-145.06;100.00;60892.56;5944595;23;20017;-90
2023/06/02 01:07:58;;;;;;;0.68;0.57;;;;;;;14.09;100.00;60892.56;5944483;23;20445;-91
2023/06/02 01:10:37;;;;;;;1.05;0.60;;;;;;;-145.06;100.00;60892.56;5944205;23;20009;-91
2023/06/02 01:13:16;;;;;;;2.03;0.90;;;;;;;-145.06;100.00;60892.56;5944021;23;20029;-91
2023/06/02 01:15:55;;;;;;;1.85;0.70;;;;;;;14.06;100.00;60892.56;5943658;23;20432;-91
2023/06/02 01:18:35;;;;;;;0.73;0.60;;;;;;;-145.06;100.00;60892.56;5944010;23;20005;-91
2023/06/02 01:21:21;;;;;;;1.65;0.80;;;;;;;-145.06;100.00;60892.56;5923266;23;20009;-91
2023/06/02 01:24:00;;;;;;;1.10;0.70;;;;;;;-145.06;100.00;60892.56;5943846;23;20009;-91
2023/06/02 01:26:39;;;;;;;1.37;0.77;;;;;;;-145.06;100.00;60892.56;5944484;23;20005;-91
2023/06/02 01:29:18;;;;;;;1.33;0.80;;;;;;;-145.06;100.00;60892.56;5923187;23;20013;-90
2023/06/02 01:31:58;;;;;;;1.37;0.77;;;;;;;-145.06;100.00;60892.56;5943182;23;20245;-90
2023/06/02 01:34:55;;;;;;;;;;;;;;;-145.06;100.00;60892.56;5943848;23;20009;-91
2023/06/02 01:37:39;;;;;;;0.75;0.60;;;;;;;-145.06;100.00;60892.56;5945401;23;19904;-92
2023/06/02 01:40:19;;;;;;;0.98;0.80;;;;;;;-145.06;100.00;60892.56;5943046;23;20301;-92
2023/06/02 01:42:58;;;;;;;0.80;0.60;;;;;;;-145.06;100.00;60892.56;5944312;23;20025;-92
2023/06/02 01:45:37;;;;;;;1.77;0.80;;;;;;;-145.06;100.00;60892.56;5943765;23;20310;-92
2023/06/02 01:48:17;;;;;;;1.08;0.73;;;;;;;-145.06;100.00;60892.56;5943731;23;20035;-92
2023/06/02 01:50:56;;;;;;;0.90;0.60;;;;;;;13.96;100.00;60892.56;5943988;23;20057;-91
2023/06/02 01:53:35;;;;;;;0.88;0.70;;;;;;;14.58;100.00;60892.56;5943961;23;20325;-90
2023/06/02 01:56:14;;;;;;;0.93;0.70;;;;;;;-145.06;100.00;60892.56;5943638;23;20009;-91
2023/06/02 01:58:53;;;;;;;1.25;0.70;;;;;;;-145.06;100.00;60892.56;5944023;23;20005;-91
2023/06/02 02:01:33;;;;;;;0.90;0.80;;;;;;;-145.06;100.00;60892.56;5944179;23;20009;-90
2023/06/02 02:04:13;;;;;;;1.02;0.70;;;;;;;-145.06;100.00;60892.56;5943693;23;20783;-91
2023/06/02 02:06:52;;;;;;;1.80;0.83;;;;;;;-145.06;100.00;60892.56;5943656;23;20014;-91
2023/06/02 02:09:31;;;;;;;0.90;0.60;;;;;;;14.58;100.00;60892.56;5943326;23;20009;-91
2023/06/02 02:12:10;;;;;;;1.63;0.73;;;;;;;14.09;100.00;60892.56;5943501;23;20314;-91
2023/06/02 02:14:50;;;;;;;0.97;0.80;;;;;;;-145.06;100.00;60892.56;5944124;23;20005;-91
2023/06/02 02:17:30;;;;;;;2.33;0.85;;;;;;;-145.06;100.00;60892.56;5943559;23;20010;-92
2023/06/02 02:20:09;;;;;;;0.60;0.55;;;;;;;13.96;100.00;60892.56;5943710;23;20025;-91
2023/06/02 02:22:49;;;;;;;1.42;0.70;;;;;;;-145.06;100.00;60892.56;5943841;23;19998;-91
2023/06/02 02:25:28;;;;;;;4.28;1.45;;;;;;;-145.06;100.00;60892.56;5942968;23;20010;-89
2023/06/02 02:28:07;;;;;;;6.17;1.90;;;;;;;-145.06;100.00;60892.56;5923268;23;20014;-92
2023/06/02 02:30:46;;;;;;;7.07;2.37;;;;;;;-145.06;100.00;60892.56;5954429;23;20245;-91
2023/06/02 02:33:25;;;;;;;11.33;3.67;;;;;;;-145.06;100.00;60892.56;5943155;23;20014;-91
2023/06/02 02:36:05;;;;;;;11.88;4.00;;;;;;;-145.06;100.00;60892.56;5943530;23;20061;-90
2023/06/02 02:38:44;;;;;;;13.18;4.20;;;;;;;-145.06;100.00;60892.56;5943459;23;20029;-91
2023/06/02 02:41:23;;;;;;;11.52;3.83;;;;;;;-145.06;100.00;60892.56;5942733;23;20092;-91
2023/06/02 02:44:02;;;;;;;7.40;2.80;;;;;;;-145.06;100.00;60892.56;5943026;23;20309;-92
2023/06/02 02:46:41;;;;;;;5.97;2.37;;;;;;;-145.06;100.00;60892.56;5942760;23;20028;-90
2023/06/02 02:49:20;;;;;;;5.35;2.08;;;;;;;-145.06;100.00;60892.56;5943494;23;20005;-91
2023/06/02 02:51:59;;;;;;;7.60;3.27;;;;;;;-145.06;100.00;60892.56;5943121;23;20010;-90
2023/06/02 02:54:38;;;;;;;5.00;2.55;;;;;;;-145.06;100.00;60892.56;5942551;23;20010;-92
2023/06/02 02:57:18;;;;;;;5.00;2.55;;;;;;;-145.06;100.00;60892.56;5943978;23;20413;-91
2023/06/02 02:59:57;;;;;;;4.70;2.63;;;;;;;-145.06;100.00;60892.56;5942983;23;20006;-91
2023/06/02 03:02:36;;;;;;;3.20;1.90;;;;;;;-145.06;100.00;60892.56;5942942;23;20009;-90
2023/06/02 03:05:15;;;;;;;3.13;1.60;;;;;;;-145.06;100.00;60892.56;5943088;23;20437;-93
2023/06/02 03:07:55;;;;;;;2.27;1.47;;;;;;;-145.06;100.00;60892.56;5943188;23;20009;-90
2023/06/02 03:10:34;;;;;;;2.67;1.40;;;;;;;-145.06;100.00;60892.56;5943836;23;20014;-92
2023/06/02 03:13:22;;;;;;;1.33;1.03;;;;;;;-145.06;100.00;60892.56;5943809;23;20009;-91
2023/06/02 03:16:01;;;;;;;1.40;1.00;;;;;;;-145.06;100.00;60892.56;5943544;23;20013;-92
2023/06/02 03:18:40;;;;;;;1.77;1.08;;;;;;;-145.06;100.00;60892.56;5943231;23;20002;-90
2023/06/02 03:21:19;;;;;;;1.60;0.85;;;;;;;-145.06;100.00;60892.56;5942677;23;20005;-92
2023/06/02 03:23:58;;;;;;;2.83;1.10;;;;;;;-145.06;100.00;60892.56;5943744;23;20013;-92
2023/06/02 03:27:13;;;;;;;1.63;1.10;;;;;;;-145.06;100.00;60892.56;5943567;23;20314;-91
2023/06/02 03:29:52;;;;;;;1.33;1.10;;;;;;;-145.06;100.00;60892.56;5941828;23;20314;-92
2023/06/02 03:32:31;;;;;;;1.00;0.90;;;;;;;-145.06;100.00;60892.56;5942675;23;20013;-92
2023/06/02 03:35:10;;;;;;;1.80;1.10;;;;;;;-145.06;100.00;60892.56;5947993;23;20312;-91
2023/06/02 03:37:49;;;;;;;1.33;1.10;;;;;;;-145.06;100.00;60892.56;5933387;23;20014;-92
2023/06/02 03:40:28;;;;;;;1.80;1.10;;;;;;;-145.06;100.00;60892.56;5917339;23;20010;-90
2023/06/02 03:43:07;;;;;;;1.88;1.23;;;;;;;-145.06;100.00;60892.56;5917011;23;20242;-91
2023/06/02 03:45:46;;;;;;;2.25;1.20;;;;;;;-145.06;100.00;60892.56;5917186;23;20033;-91
2023/06/02 03:48:25;;;;;;;2.03;1.55;;;;;;;-145.06;100.00;60892.56;5916903;23;20014;-92
2023/06/02 03:51:04;;;;;;;2.38;1.48;;;;;;;-145.06;100.00;60892.56;5916848;23;20437;-91
2023/06/02 03:53:43;;;;;;;2.75;1.27;;;;;;;14.58;100.00;60892.56;5917175;23;20010;-91
2023/06/02 03:56:22;;;;;;;1.40;1.30;;;;;;;-145.06;100.00;60892.56;5916915;23;20425;-90
2023/06/02 03:59:01;;;;;;;3.70;2.30;;;;;;;-145.06;100.00;60892.56;5917275;23;20017;-90
2023/06/02 04:01:41;;;;;;;3.00;1.80;;;;;;;-145.06;100.00;60892.56;5917302;23;20234;-91
2023/06/02 04:04:20;;;;;;;2.85;2.33;;;;;;;-145.06;100.00;60892.56;5917701;23;20073;-91
2023/06/02 04:06:59;;;;;;;4.20;2.50;;;;;;;-145.06;100.00;60892.56;5917509;23;20010;-91
2023/06/02 04:09:39;;;;;;;3.40;2.20;;;;;;;-145.06;100.00;60892.56;5917351;23;20010;-91
2023/06/02 04:12:17;;;;;;;4.60;2.90;;;;;;;-145.06;100.00;60892.56;5918008;23;20002;-91
2023/06/02 04:14:57;;;;;;;4.15;3.53;;;;;;;-145.06;100.00;60892.56;5917687;23;20033;-92
2023/06/02 04:17:36;;;;;;;4.43;3.55;;;;;;;-145.06;100.00;60892.56;5917684;23;20014;-90
2023/06/02 04:20:15;;;;;;;4.63;3.70;;;;;;;13.21;100.00;60892.56;5917589;23;20006;-91
2023/06/02 04:22:54;;;;;;;7.40;3.40;;;;;;;-145.06;100.00;60892.56;5917147;23;20234;-90
2023/06/02 04:25:33;;;;;;;5.27;3.40;;;;;;;13.28;100.00;60892.56;5917648;23;20006;-92
2023/06/02 04:28:12;;;;;;;3.87;3.33;;;;;;;-145.06;100.00;60892.56;5917813;23;20635;-92
2023/06/02 04:30:54;;;;;;;3.90;3.13;;;;;;;-145.06;100.00;60892.56;5917140;23;20010;-91
2023/06/02 04:33:33;;;;;;;5.00;3.40;;;;;;;15.88;100.00;60892.56;5916676;23;20029;-91
2023/06/02 04:36:12;;;;;;;4.90;3.40;;;;;;;-145.06;100.00;60892.56;5917481;23;20013;-91
2023/06/02 04:38:51;;;;;;;3.73;3.27;;;;;;;-145.06;100.00;60892.56;5917660;23;20242;-92
2023/06/02 04:41:31;;;;;;;6.53;3.70;;;;;;;-145.06;100.00;60892.56;5918017;23;20257;-91
2023/06/02 04:44:11;;;;;;;5.18;3.92;;;;;;;-145.06;100.00;60892.56;5917248;23;20006;-90
2023/06/02 04:46:50;;;;;;;4.93;3.88;;;;;;;13.16;100.00;60892.56;5916265;23;20013;-92
2023/06/02 04:49:29;;;;;;;4.00;3.60;;;;;;;-145.06;100.00;60892.56;5927234;23;20010;-93
2023/06/02 04:52:09;;;;;;;4.15;3.47;;;;;;;-145.06;100.00;60892.56;5916482;23;20009;-92
2023/06/02 04:54:48;;;;;;;4.07;3.00;;;;;;;-145.06;100.00;60892.56;5916427;23;20327;-90
2023/06/02 04:57:27;;;;;;;3.33;2.63;;;;;;;-145.06;100.00;60892.56;5916302;23;20010;-91
2023/06/02 05:00:08;;;;;;;2.27;2.03;;;;;;;-145.06;100.00;60892.56;5915684;23;20085;-90
2023/06/02 05:02:47;;;;;;;2.40;2.20;;;;;;;-145.06;100.00;60892.56;5916203;23;20001;-91
2023/06/02 05:05:26;;;;;;;3.75;2.85;;;;;;;-145.06;100.00;60892.56;5916076;23;20033;-91
2023/06/02 05:08:06;;;;;;;3.77;2.93;;;;;;;-145.06;100.00;60892.56;5915577;23;20006;-90
2023/06/02 05:10:45;;;;;;;4.40;3.83;;;;;;;-145.06;100.00;60892.56;5916814;23;20317;-90
2023/06/02 05:13:24;;;;;;;4.30;3.38;;;;;;;-145.06;100.00;60892.56;5916108;23;20005;-90
2023/06/02 05:16:03;;;;;;;4.00;3.53;;;;;;;-145.06;100.00;60892.56;5916099;23;20013;-90
2023/06/02 05:18:42;;;;;;;4.43;3.35;;;;;;;-145.06;100.00;60892.56;5915937;23;20002;-90
2023/06/02 05:21:22;;;;;;;4.32;3.85;;;;;;;13.28;100.00;60892.56;5916063;23;20002;-90
2023/06/02 05:24:00;;;;;;;5.75;4.03;;;;;;;13.08;100.00;60892.56;5916587;23;20010;-90
2023/06/02 05:26:39;;;;;;;5.82;4.10;;;;;;;-145.06;100.00;60892.56;5915269;23;20010;-90
2023/06/02 05:29:18;;;;;;;4.07;3.30;;;;;;;13.12;100.00;60892.56;5915027;23;20006;-91
2023/06/02 05:31:57;;;;;;;5.18;3.70;;;;;;;-145.06;100.00;60892.56;5913243;23;20276;-89
2023/06/02 05:34:37;;;;;;;7.57;4.47;;;;;;;-145.06;100.00;60892.56;5913923;23;20010;-89
2023/06/02 05:37:16;;;;;;;5.65;4.18;;;;;;;-145.06;100.00;60892.56;5915044;23;20041;-90
2023/06/02 05:39:55;;;;;;;7.05;3.70;;;;;;;13.09;100.00;60892.56;5914761;23;20005;-94
2023/06/02 05:42:34;;;;;;;3.70;2.33;;;;;;;-145.06;100.00;60892.56;5914568;23;20255;-92
2023/06/02 05:45:13;;;;;;;2.88;2.58;;;;;;;-145.06;100.00;60892.56;5914092;23;20429;-89
2023/06/02 05:47:52;;;;;;;4.20;2.70;;;;;;;-145.06;100.00;60892.56;5914513;23;20009;-90
2023/06/02 05:50:31;;;;;;;3.33;2.40;;;;;;;-145.06;100.00;60892.56;5913827;23;20010;-90
2023/06/02 05:53:09;;;;;;;3.20;2.03;;;;;;;13.10;100.00;60892.56;5914769;23;20010;-91
2023/06/02 05:55:48;;;;;;;2.97;2.37;;;;;;;13.15;100.00;60892.56;5913516;23;20786;-92
2023/06/02 05:58:27;;;;;;;5.95;2.22;;;;;;;-145.06;100.00;60892.56;5913858;23;20010;-91
2023/06/02 06:01:06;;;;;;;3.75;1.85;;;;;;;-145.06;100.00;60892.56;5914156;23;20006;-92
2023/06/02 06:03:45;;;;;;;4.63;2.55;;;;;;;-145.06;100.00;60892.56;5914000;23;20013;-89
2023/06/02 06:06:24;;;;;;;4.32;3.05;;;;;;;-145.06;100.00;60892.56;5913893;23;20319;-89
2023/06/02 06:09:05;;;;;;;4.80;3.50;;;;;;;-145.06;100.00;60892.56;5913946;23;20010;-93
2023/06/02 06:11:44;;;;;;;3.92;3.15;;;;;;;-145.06;100.00;60892.56;5913627;23;20006;-90
2023/06/02 06:14:23;;;;;;;4.43;3.57;;;;;;;-145.06;100.00;60892.56;5913936;23;20326;-90
2023/06/02 06:17:02;;;;;;;4.40;3.72;;;;;;;-145.06;100.00;60892.56;5914034;23;20009;-90
2023/06/02 06:19:41;;;;;;;4.10;3.70;;;;;;;-145.06;100.00;60892.56;5913654;23;20391;-91
2023/06/02 06:22:20;;;;;;;5.80;4.25;;;;;;;13.07;100.00;60892.56;5914068;23;20270;-91
2023/06/02 06:24:59;;;;;;;5.15;3.92;;;;;;;-145.06;100.00;60892.56;5913652;23;20006;-90
2023/06/02 06:27:38;;;;;;;5.25;3.20;;;;;;;-145.06;100.00;60892.56;5913914;23;20428;-90
2023/06/02 06:30:21;;;;;;;5.60;3.63;;;;;;;13.28;100.00;60892.56;5913686;23;20318;-90
2023/06/02 06:33:00;;;;;;;4.22;3.47;;;;;;;-145.06;100.00;60892.56;5913613;23;20009;-90
2023/06/02 06:35:40;;;;;;;5.55;3.60;;;;;;;-145.06;100.00;60892.56;5913701;23;20010;-90
2023/06/02 06:38:18;;;;;;;4.50;3.30;;;;;;;-145.06;100.00;60892.56;5913642;23;20010;-91
2023/06/02 06:40:57;;;;;;;2.63;2.33;;;;;;;13.11;100.00;60892.56;5913304;23;19998;-92
2023/06/02 06:43:37;;;;;;;5.18;3.20;;;;;;;13.08;100.00;60892.56;5931266;23;20246;-90
2023/06/02 06:46:16;;;;;;;3.97;2.95;;;;;;;13.07;100.00;60892.56;5937495;23;19998;-92
2023/06/02 06:48:55;;;;;;;5.15;3.38;;;;;;;-145.06;100.00;60892.56;5914673;23;20080;-90
2023/06/02 06:51:36;;;;;;;4.38;3.30;;;;;;;-145.06;100.00;60892.56;5914049;23;20010;-90
2023/06/02 06:54:15;;;;;;;5.28;2.92;;;;;;;-145.06;100.00;60892.56;5913410;23;20320;-91
2023/06/02 06:56:54;;;;;;;5.28;2.90;;;;;;;13.11;100.00;60892.56;5913033;23;20002;-91
2023/06/02 06:59:33;;;;;;;4.57;3.37;;;;;;;13.12;100.00;60892.56;5913880;23;20088;-90
2023/06/02 07:02:12;;;;;;;4.13;3.10;;;;;;;13.13;100.00;60892.56;5912836;23;20241;-91
2023/06/02 07:04:51;;;;;;;4.47;2.83;;;;;;;13.16;100.00;60892.56;5913180;23;20242;-90
2023/06/02 07:07:31;;;;;;;3.97;2.50;;;;;;;-145.06;100.00;60892.56;5913771;23;20014;-91
2023/06/02 07:10:10;;;;;;;3.53;2.85;;;;;;;-145.06;100.00;60892.56;5913285;23;20013;-91
2023/06/02 07:12:49;;;;;;;;;;;;;;;-145.06;100.00;60892.56;5913823;23;20005;-90
2023/06/02 07:15:28;;;;;;;4.07;2.78;;;;;;;13.22;100.00;60892.56;5913561;23;19905;-91
2023/06/02 07:18:07;;;;;;;2.47;1.88;;;;;;;-145.06;100.00;60892.56;5913880;23;20010;-91
2023/06/02 07:20:46;;;;;;;3.38;2.63;;;;;;;-145.06;100.00;60892.56;5912911;23;20030;-91
2023/06/02 07:23:26;;;;;;;4.18;2.70;;;;;;;-145.06;100.00;60892.56;5914633;23;20010;-92
2023/06/02 07:26:05;;;;;;;2.90;2.57;;;;;;;-145.06;100.00;60892.56;5913569;23;20005;-91
2023/06/02 07:28:44;;;;;;;3.92;2.80;;;;;;;-145.06;100.00;60892.56;5912359;23;20010;-91
2023/06/02 07:31:23;;;;;;;4.20;3.17;;;;;;;-145.06;100.00;60892.56;5913816;23;20005;-92
2023/06/02 07:34:02;;;;;;;5.53;3.53;;;;;;;14.58;100.00;60892.56;5913508;23;20009;-91
2023/06/02 07:36:43;;;;;;;7.80;3.30;;;;;;;13.52;100.00;60892.56;5913533;23;20097;-92
2023/06/02 07:39:23;;;;;;;4.53;3.13;;;;;;;-145.06;100.00;60892.56;5913785;23;20038;-91
2023/06/02 07:42:02;;;;;;;4.00;3.08;;;;;;;-145.06;100.00;60892.56;5913449;23;20091;-91
2023/06/02 07:44:41;;;;;;;4.20;3.20;;;;;;;-145.06;100.00;60892.56;5914527;23;20006;-90
2023/06/02 07:47:21;;;;;;;4.30;2.97;;;;;;;-145.06;100.00;60892.56;5913846;23;20010;-92
2023/06/02 07:50:01;;;;;;;5.97;3.28;;;;;;;-145.06;100.00;60892.56;5913128;23;20006;-91
2023/06/02 07:52:39;;;;;;;3.72;3.00;;;;;;;-145.06;100.00;60892.56;5914123;23;20010;-91
2023/06/02 07:55:18;;;;;;;4.53;3.13;;;;;;;-145.06;100.00;60892.56;5913875;23;20442;-92
2023/06/02 07:57:57;;;;;;;3.80;2.90;;;;;;;-145.06;100.00;60892.56;5914362;23;20198;-91
2023/06/02 08:00:38;;;;;;;3.55;2.97;;;;;;;-145.06;100.00;60892.56;5924821;23;20013;-91
2023/06/02 08:03:17;;;;;;;3.70;2.90;;;;;;;-145.06;100.00;60892.56;5913191;23;20037;-91
2023/06/02 08:05:56;;;;;;;5.37;3.10;;;;;;;-145.06;100.00;60892.56;5913882;23;20010;-92
2023/06/02 08:08:35;;;;;;;4.65;3.38;;;;;;;-145.06;100.00;60892.56;5913927;23;20009;-92
2023/06/02 08:11:14;;;;;;;4.60;3.10;;;;;;;-145.06;100.00;60892.56;5913969;23;20006;-91
2023/06/02 08:13:53;;;;;;;3.63;3.15;;;;;;;-145.06;100.00;60892.56;5914284;23;20006;-91
2023/06/02 08:16:32;;;;;;;3.10;2.80;;;;;;;-145.06;100.00;60892.56;5913968;23;20010;-91
2023/06/02 08:19:11;;;;;;;5.93;3.27;;;;;;;-145.06;100.00;60892.56;5913803;23;20242;-90
2023/06/02 08:21:51;;;;;;;4.00;3.22;;;;;;;-145.06;100.00;60892.56;5913695;23;20006;-92
2023/06/02 08:24:31;;;;;;;4.35;3.03;;;;;;;14.27;100.00;60892.56;5915048;23;20010;-91
2023/06/02 08:27:10;;;;;;;2.90;2.60;;;;;;;-145.06;100.00;60892.56;5915345;23;20014;-90
2023/06/02 08:29:51;;;;;;;4.60;3.37;;;;;;;14.37;100.00;60892.56;5915299;23;20010;-92
2023/06/02 08:32:29;;;;;;;3.65;2.88;;;;;;;-145.06;100.00;60892.56;5915105;23;20274;-92
2023/06/02 08:35:09;;;;;;;3.95;3.03;;;;;;;-145.06;100.00;60892.56;5915240;23;20377;-91
2023/06/02 08:37:48;;;;;;;3.60;2.88;;;;;;;-145.06;100.00;60892.56;5915190;23;20006;-92
2023/06/02 08:40:36;;;;;;;3.75;3.45;;;;;;;-145.06;100.00;60892.56;5914885;23;20006;-90
2023/06/02 08:43:15;;;;;;;4.05;3.25;;;;;;;14.50;100.00;60892.56;5915554;23;20433;-91
2023/06/02 08:45:56;;;;;;;5.95;3.80;;;;;;;14.50;100.00;60892.56;5915206;23;20009;-93
2023/06/02 08:48:36;;;;;;;4.90;4.03;;;;;;;14.53;100.00;60892.56;5915242;23;20005;-91
2023/06/02 08:51:21;;;;;;;5.70;3.63;;;;;;;-145.06;100.00;60892.56;5914916;23;20002;-91
2023/06/02 08:54:01;;;;;;;3.67;3.30;;;;;;;-145.06;100.00;60892.56;5914813;23;20006;-93
2023/06/02 08:56:41;;;;;;;6.03;3.53;;;;;;;-145.06;100.00;60892.56;5915401;23;20310;-90
2023/06/02 08:59:20;;;;;;;5.15;3.88;;;;;;;14.71;100.00;60892.56;5915119;23;20006;-92
2023/06/02 09:02:00;;;;;;;4.10;3.40;;;;;;;-145.06;100.00;60892.56;5915127;23;20009;-91
2023/06/02 09:04:39;;;;;;;5.55;4.13;;;;;;;-145.06;100.00;60892.56;5915339;23;20377;-92
2023/06/02 09:07:20;;;;;;;4.90;3.53;;;;;;;-145.06;100.00;60892.56;5914522;23;20437;-90
2023/06/02 09:09:59;;;;;;;4.00;3.55;;;;;;;-145.06;100.00;60892.56;5915188;23;20385;-90
2023/06/02 09:12:48;;;;;;;4.53;3.47;;;;;;;-145.06;100.00;60892.56;5914559;23;20010;-91
2023/06/02 09:15:27;;;;;;;6.13;3.80;;;;;;;-145.06;100.00;60892.56;5915392;23;20721;-92
2023/06/02 09:18:15;;;;;;;4.88;3.70;;;;;;;-145.06;100.00;60892.56;5914951;23;20014;-92
2023/06/02 09:20:58;;;;;;;6.90;3.63;;;;;;;-145.06;100.00;60892.56;5915010;23;20018;-90
2023/06/02 09:23:42;;;;;;;4.05;3.22;;;;;;;-145.06;100.00;60892.56;5914271;23;20010;-90
2023/06/02 09:26:30;;;;;;;4.57;3.70;;;;;;;-145.06;100.00;60892.56;5915390;23;20077;-92
2023/06/02 09:29:12;;;;;;;4.18;3.70;;;;;;;-145.06;100.00;60892.56;5914616;23;20025;-91
2023/06/02 09:31:54;;;;;;;5.88;3.72;;;;;;;-145.06;100.00;60892.56;5914044;23;20010;-91
2023/06/02 09:34:37;;;;;;;6.05;3.88;;;;;;;-145.06;100.00;60892.56;5914769;23;20084;-91
2023/06/02 09:37:17;;;;;;;5.22;3.85;;;;;;;-145.06;100.00;60892.56;5914883;23;20014;-93
2023/06/02 09:40:05;;;;;;;5.43;3.97;;;;;;;-145.06;100.00;60892.56;5914877;23;20010;-90
2023/06/02 09:42:44;;;;;;;8.68;4.30;;;;;;;-145.06;100.00;60892.56;5914380;23;20002;-91
2023/06/02 09:45:23;;;;;;;8.55;4.50;;;;;;;-145.06;100.00;60892.56;5914609;23;20009;-91
2023/06/02 09:48:02;;;;;;;5.85;4.30;;;;;;;-145.06;100.00;60892.56;5914887;23;20037;-92
2023/06/02 09:50:41;;;;;;;7.43;4.30;;;;;;;15.47;100.00;60892.56;5914798;23;20005;-90
2023/06/02 09:53:22;;;;;;;4.43;3.80;;;;;;;-145.06;100.00;60892.56;5919339;23;20468;-92
2023/06/02 09:56:02;;;;;;;5.15;3.65;;;;;;;15.58;100.00;60892.56;5938846;23;20002;-93
2023/06/02 09:58:42;;;;;;;4.55;3.70;;;;;;;15.65;100.00;60892.56;5929023;23;20014;-92
2023/06/02 10:01:22;;;;;;;5.10;3.97;;;;;;;15.71;100.00;60892.56;5915563;23;20001;-91
2023/06/02 10:04:01;;;;;;;;;;;;;;;15.74;100.00;60892.56;5915084;23;20009;-92
2023/06/02 10:07:13;;;;;;;4.22;3.00;;;;;;;-145.06;100.00;60892.56;5914720;23;20312;-91
2023/06/02 10:09:58;;;;;;;5.13;3.72;;;;;;;15.83;100.00;60892.56;5915357;23;20456;-93
2023/06/02 10:13:09;;;;;;;4.43;3.63;;;;;;;-145.06;100.00;60892.56;5914651;23;20009;-90
2023/06/02 10:16:08;;;;;;;5.13;3.75;;;;;;;-145.06;100.00;60892.56;5914475;23;20006;-92
2023/06/02 10:19:12;;;;;;;5.67;3.97;;;;;;;-145.06;100.00;60892.56;5914502;23;20006;-92
2023/06/02 10:22:16;;;;;;;4.05;3.58;;;;;;;-145.06;100.00;60892.56;5915421;23;20033;-92
2023/06/02 10:25:16;;;;;;;5.13;3.20;;;;;;;-145.06;100.00;60892.56;5915654;23;20006;-92
2023/06/02 10:27:57;;;;;;;4.53;3.30;;;;;;;-145.06;100.00;60892.56;5914741;23;20006;-92
2023/06/02 10:30:35;;;;;;;;;;;;;;;-145.06;100.00;60892.56;5915282;23;20006;-92
2023/06/02 10:33:15;;;;;;;3.80;3.20;;;;;;;-145.06;100.00;60892.56;5914414;23;19908;-93
2023/06/02 10:35:59;;;;;;;4.22;3.58;;;;;;;-145.06;100.00;60892.56;5915389;23;20013;-92
2023/06/02 10:44:19;;;;;;;5.93;3.83;;;;;;;-145.06;100.00;60892.56;5946686;23;19916;-92
2023/06/02 10:47:17;;;;;;;;;;;;;;;-145.06;100.00;60892.56;5921937;23;20492;-93
2023/06/02 10:50:00;;;;;;;4.25;3.33;;;;;;;-145.06;100.00;60892.56;5951963;23;19979;-91
2023/06/02 10:52:58;;;;;;;3.90;3.10;;;;;;;-145.06;100.00;60892.56;5921129;23;20005;-91
2023/06/02 10:55:38;;;;;;;3.88;3.25;;;;;;;-145.06;100.00;60892.56;5919845;23;20005;-89
2023/06/02 10:58:17;;;;;;;4.93;3.17;;;;;;;-145.06;100.00;60892.56;5920628;23;20010;-89
2023/06/02 11:00:56;;;;;;;4.60;2.88;;;;;;;-145.06;100.00;60892.56;5920251;23;20025;-91
2023/06/02 11:03:35;;;;;;;3.73;3.13;;;;;;;-145.06;100.00;60892.56;5920093;23;20433;-90
2023/06/02 11:06:19;;;;;;;4.55;3.10;;;;;;;18.03;100.00;60892.56;5920615;23;20237;-90
2023/06/02 11:09:35;;;;;;;3.53;2.90;;;;;;;-145.06;100.00;60892.56;5920275;23;20006;-90
2023/06/02 11:12:15;;;;;;;3.00;2.20;;;;;;;18.19;100.00;60892.56;5920715;23;20009;-91
2023/06/02 11:15:12;;;;;;;3.88;2.55;;;;;;;18.28;100.00;60892.56;5920750;23;20009;-90
2023/06/02 11:17:51;;;;;;;2.60;2.38;;;;;;;-145.06;100.00;60892.56;5921052;23;20005;-91
2023/06/02 11:20:35;;;;;;;2.92;2.28;;;;;;;-145.06;100.00;60892.56;5920837;23;20013;-92
2023/06/02 11:23:14;;;;;;;3.53;2.35;;;;;;;-145.06;100.00;60892.56;5920796;23;19998;-91
2023/06/02 11:26:07;;;;;;;2.30;2.10;;;;;;;-145.06;100.00;60892.56;5920989;23;20005;-90
2023/06/02 11:28:47;;;;;;;2.55;2.28;;;;;;;-145.06;100.00;60892.56;5920882;23;20005;-90
2023/06/02 11:31:27;;;;;;;4.68;2.97;;;;;;;-145.06;100.00;60892.56;5919862;23;20006;-91
2023/06/02 11:34:15;;;;;;;3.17;2.40;;;;;;;-145.06;100.00;60892.56;5920330;23;20009;-91
2023/06/02 11:36:55;;;;;;;4.30;2.42;;;;;;;19.78;100.00;60892.56;5920831;23;20045;-92
2023/06/02 11:39:48;;;;;;;2.78;2.30;;;;;;;18.60;100.00;60892.56;5920111;23;20310;-90
2023/06/02 11:42:34;;;;;;;2.60;2.15;;;;;;;-145.06;100.00;60892.56;5920885;23;20009;-93
2023/06/02 11:45:25;;;;;;;3.47;2.00;;;;;;;-145.06;100.00;60892.56;5920417;23;20013;-90
2023/06/02 11:48:11;;;;;;;2.72;1.88;;;;;;;-145.06;100.00;60892.56;5920646;23;20009;-90
2023/06/02 11:50:57;;;;;;;2.20;1.65;;;;;;;-145.06;100.00;60892.56;5919814;23;20006;-91
2023/06/02 11:53:38;;;;;;;1.85;1.58;;;;;;;-145.06;100.00;60892.56;5921052;23;20084;-92
2023/06/02 11:56:17;;;;;;;3.05;1.55;;;;;;;-145.06;100.00;60892.56;5920754;23;20009;-91
2023/06/02 11:58:56;;;;;;;2.40;1.67;;;;;;;-145.06;100.00;60892.56;5921250;23;20441;-93
2023/06/02 12:01:36;;;;;;;2.97;1.90;;;;;;;-145.06;100.00;60892.56;5923121;23;20005;-92
2023/06/02 12:04:15;;;;;;;3.17;2.13;;;;;;;-145.06;100.00;60892.56;5921983;23;20005;-91
2023/06/02 12:06:54;;;;;;;3.58;2.20;;;;;;;19.45;100.00;60892.56;5921304;23;20005;-92
2023/06/02 12:09:33;;;;;;;2.35;1.92;;;;;;;-145.06;100.00;60892.56;5926308;23;20013;-92
2023/06/02 12:16:15;;;;;;;3.88;1.80;;;;;;;19.55;100.00;60892.56;5929364;23;20009;-94
2023/06/02 12:26:26;;;;;;;2.08;1.70;;;;;;;-145.06;100.00;60892.56;5893558;23;20010;-94
2023/06/02 13:10:02;;;;;;;2.65;1.42;;;;;;;-145.06;100.00;60892.56;5947183;23;20100;-93
2023/06/02 13:12:41;;;;;;;;;;;;;;;-145.06;100.00;60892.56;5924578;23;20005;-93
2023/06/02 13:15:20;;;;;;;1.20;1.10;;;;;;;-145.06;100.00;60892.56;5924056;23;19971;-91
2023/06/02 13:20:29;;;;;;;2.13;1.20;;;;;;;-145.06;100.00;60892.56;5956282;23;20006;-93